createdAt,value
2022-12-03T00:01:45.992Z,5.95
2022-12-03T00:04:16.676Z,4.93
2022-12-03T00:06:50.242Z,6.05
2022-12-03T00:09:24.123Z,6.38
2022-12-03T00:11:52.627Z,6.55
2022-12-03T00:14:21.433Z,5.28
2022-12-03T00:16:51.595Z,5.63
2022-12-03T00:19:21.578Z,5.40
2022-12-03T00:21:52.107Z,5.57
2022-12-03T00:24:22.851Z,5.47
2022-12-03T00:26:53.165Z,5.80
2022-12-03T00:29:23.452Z,4.93
2022-12-03T00:31:56.752Z,6.13
2022-12-03T00:34:30.355Z,6.05
2022-12-03T00:37:00.877Z,5.60
2022-12-03T00:39:34.034Z,5.72
2022-12-03T00:42:02.935Z,5.10
2022-12-03T00:44:36.162Z,6.18
2022-12-03T00:47:03.473Z,5.28
2022-12-03T00:49:36.884Z,5.25
2022-12-03T00:52:10.031Z,6.35
2022-12-03T00:54:42.981Z,5.05
2022-12-03T00:57:12.650Z,4.68
2022-12-03T00:59:42.918Z,5.40
2022-12-03T01:02:14.131Z,5.30
2022-12-03T01:04:44.984Z,5.60
2022-12-03T01:07:18.281Z,5.15
2022-12-03T01:09:51.476Z,5.07
2022-12-03T01:12:25.509Z,5.30
2022-12-03T01:14:53.076Z,5.18
2022-12-03T01:17:20.874Z,4.45
2022-12-03T01:19:52.521Z,5.30
2022-12-03T01:22:26.001Z,5.10
2022-12-03T01:25:02.200Z,5.20
2022-12-03T01:27:35.290Z,5.85
2022-12-03T01:30:04.914Z,4.88
2022-12-03T01:32:35.398Z,5.15
2022-12-03T01:35:05.561Z,5.40
2022-12-03T01:37:35.518Z,5.50
2022-12-03T01:40:03.231Z,5.53
2022-12-03T01:42:38.681Z,5.20
2022-12-03T01:45:09.313Z,5.32
2022-12-03T01:47:45.375Z,4.35
2022-12-03T01:50:26.298Z,4.93
2022-12-03T01:53:05.430Z,5.45
2022-12-03T01:55:40.536Z,4.78
2022-12-03T01:58:13.527Z,5.20
2022-12-03T02:00:43.841Z,4.82
2022-12-03T02:03:29.034Z,4.95
2022-12-03T02:05:59.158Z,5.10
2022-12-03T02:08:30.107Z,4.85
2022-12-03T02:11:02.243Z,5.00
2022-12-03T02:13:29.509Z,5.30
2022-12-03T02:16:03.043Z,5.20
2022-12-03T02:18:34.335Z,5.65
2022-12-03T02:21:24.796Z,4.30
2022-12-03T02:24:01.962Z,4.78
2022-12-03T02:26:35.950Z,5.45
2022-12-03T02:29:03.556Z,4.82
2022-12-03T02:31:37.436Z,4.65
2022-12-03T02:34:11.002Z,4.70
2022-12-03T02:36:47.395Z,5.03
2022-12-03T02:39:14.487Z,5.72
2022-12-03T02:41:59.762Z,4.50
2022-12-03T02:44:26.881Z,5.15
2022-12-03T02:46:53.986Z,5.05
2022-12-03T02:49:30.434Z,5.40
2022-12-03T02:52:00.792Z,5.05
2022-12-03T02:54:39.802Z,5.70
2022-12-03T02:57:12.959Z,4.80
2022-12-03T02:59:46.803Z,4.68
2022-12-03T03:02:19.966Z,4.63
2022-12-03T03:04:56.292Z,4.28
2022-12-03T03:07:24.095Z,5.55
2022-12-03T03:09:59.271Z,5.43
2022-12-03T03:12:26.648Z,5.28
2022-12-03T03:14:59.218Z,4.85
2022-12-03T03:17:29.637Z,4.25
2022-12-03T03:20:04.235Z,5.22
2022-12-03T03:22:41.419Z,4.75
2022-12-03T03:25:14.322Z,4.93
2022-12-03T03:27:47.762Z,4.93
2022-12-03T03:30:17.949Z,4.80
2022-12-03T03:32:47.960Z,4.65
2022-12-03T03:35:18.456Z,4.47
2022-12-03T03:37:45.549Z,5.03
2022-12-03T03:40:12.949Z,4.60
2022-12-03T03:42:42.283Z,4.90
2022-12-03T03:45:12.742Z,4.25
2022-12-03T03:47:43.208Z,4.32
2022-12-03T03:50:19.961Z,4.65
2022-12-03T03:52:59.496Z,4.43
2022-12-03T03:55:26.752Z,4.90
2022-12-03T03:57:53.916Z,5.25
2022-12-03T04:00:30.390Z,4.82
2022-12-03T04:03:03.593Z,5.32
2022-12-03T04:05:36.608Z,4.88
2022-12-03T04:08:08.540Z,4.75
2022-12-03T04:10:56.368Z,4.90
2022-12-03T04:13:24.092Z,4.55
2022-12-03T04:15:54.513Z,4.75
2022-12-03T04:18:40.000Z,5.10
2022-12-03T04:21:29.285Z,5.03
2022-12-03T04:24:03.249Z,4.45
2022-12-03T04:26:52.238Z,4.70
2022-12-03T04:29:20.157Z,4.50
2022-12-03T04:32:05.897Z,4.57
2022-12-03T04:34:54.672Z,4.75
2022-12-03T04:37:25.682Z,4.50
2022-12-03T04:39:52.874Z,5.43
2022-12-03T04:42:23.161Z,5.10
2022-12-03T04:44:56.294Z,5.18
2022-12-03T04:47:26.400Z,4.82
2022-12-03T04:50:02.643Z,4.80
2022-12-03T04:52:30.217Z,5.18
2022-12-03T04:55:00.642Z,4.65
2022-12-03T04:57:28.041Z,6.28
2022-12-03T04:59:57.211Z,5.25
2022-12-03T05:02:27.422Z,5.03
2022-12-03T05:04:57.036Z,5.03
2022-12-03T05:07:27.126Z,4.35
2022-12-03T05:09:54.123Z,5.35
2022-12-03T05:12:30.521Z,5.90
2022-12-03T05:14:57.578Z,5.00
2022-12-03T05:17:27.400Z,5.22
2022-12-03T05:20:13.072Z,5.45
2022-12-03T05:22:40.480Z,5.82
2022-12-03T05:25:10.776Z,5.40
2022-12-03T05:27:44.371Z,5.18
2022-12-03T05:30:16.915Z,5.05
2022-12-03T05:32:47.437Z,4.93
2022-12-03T05:35:15.318Z,4.55
2022-12-03T05:37:48.848Z,4.63
2022-12-03T05:40:19.198Z,5.88
2022-12-03T05:42:58.773Z,4.47
2022-12-03T05:45:39.355Z,4.10
2022-12-03T05:48:10.956Z,4.63
2022-12-03T05:50:44.648Z,5.03
2022-12-03T05:53:17.842Z,4.80
2022-12-03T05:55:53.719Z,4.55
2022-12-03T05:58:23.959Z,4.45
2022-12-03T06:00:56.988Z,4.45
2022-12-03T06:03:24.261Z,4.82
2022-12-03T06:06:09.651Z,4.43
2022-12-03T06:08:36.874Z,4.65
2022-12-03T06:11:06.617Z,4.68
2022-12-03T06:13:36.897Z,4.43
2022-12-03T06:16:21.850Z,4.63
2022-12-03T06:19:11.000Z,4.10
2022-12-03T06:21:46.916Z,4.97
2022-12-03T06:24:16.856Z,4.60
2022-12-03T06:26:43.912Z,5.07
2022-12-03T06:29:17.161Z,4.20
2022-12-03T06:31:45.641Z,4.57
2022-12-03T06:34:16.037Z,4.70
2022-12-03T06:36:42.955Z,4.45
2022-12-03T06:39:10.425Z,4.32
2022-12-03T06:41:40.614Z,4.90
2022-12-03T06:44:09.437Z,5.40
2022-12-03T06:49:24.537Z,4.97
2022-12-03T06:51:51.569Z,4.70
2022-12-03T06:54:18.817Z,4.43
2022-12-03T06:56:45.895Z,5.00
2022-12-03T06:59:22.112Z,5.55
2022-12-03T07:02:08.074Z,4.65
2022-12-03T07:04:42.045Z,4.18
2022-12-03T07:07:15.288Z,4.40
2022-12-03T07:09:45.577Z,4.82
2022-12-03T07:12:15.653Z,4.55
2022-12-03T07:14:45.989Z,5.13
2022-12-03T07:17:13.122Z,3.88
2022-12-03T07:19:43.091Z,4.53
2022-12-03T07:22:13.473Z,4.70
2022-12-03T07:24:43.681Z,4.60
2022-12-03T07:27:11.802Z,4.07
2022-12-03T07:29:40.288Z,4.63
2022-12-03T07:32:10.270Z,4.35
2022-12-03T07:34:40.162Z,4.28
2022-12-03T07:37:09.794Z,4.40
2022-12-03T07:39:37.010Z,4.00
2022-12-03T07:42:06.756Z,4.32
2022-12-03T07:44:39.408Z,4.38
2022-12-03T07:47:13.419Z,4.05
2022-12-03T07:49:43.724Z,4.35
2022-12-03T07:52:16.162Z,4.25
2022-12-03T07:54:48.401Z,4.50
2022-12-03T07:57:18.162Z,4.68
2022-12-03T07:59:48.202Z,3.95
2022-12-03T08:02:21.411Z,5.15
2022-12-03T08:04:54.986Z,4.20
2022-12-03T08:07:28.438Z,4.20
2022-12-03T08:09:59.149Z,5.28
2022-12-03T08:12:42.251Z,4.50
2022-12-03T08:15:16.922Z,4.40
2022-12-03T08:17:49.394Z,4.25
2022-12-03T08:20:21.240Z,4.28
2022-12-03T08:22:50.122Z,4.30
2022-12-03T08:25:30.116Z,4.78
2022-12-03T08:28:12.936Z,4.82
2022-12-03T08:30:41.400Z,4.70
2022-12-03T08:33:20.436Z,3.88
2022-12-03T08:35:53.041Z,4.45
2022-12-03T08:38:36.149Z,3.83
2022-12-03T08:41:07.059Z,4.88
2022-12-03T08:43:43.287Z,4.13
2022-12-03T08:46:17.466Z,4.80
2022-12-03T08:48:49.711Z,4.70
2022-12-03T08:51:26.849Z,4.55
2022-12-03T08:54:04.162Z,4.57
2022-12-03T08:56:36.764Z,5.32
2022-12-03T08:59:24.553Z,5.55
2022-12-03T09:01:59.009Z,6.35
2022-12-03T09:04:34.237Z,7.63
2022-12-03T09:07:04.473Z,7.47
2022-12-03T09:09:42.155Z,6.45
2022-12-03T09:12:12.433Z,7.22
2022-12-03T09:14:39.548Z,6.90
2022-12-03T09:17:06.931Z,6.18
2022-12-03T09:19:44.260Z,6.07
2022-12-03T09:22:16.757Z,6.05
2022-12-03T09:24:47.361Z,6.72
2022-12-03T09:27:17.374Z,6.50
2022-12-03T09:29:51.283Z,5.53
2022-12-03T09:32:27.650Z,5.45
2022-12-03T09:35:01.479Z,5.45
2022-12-03T09:37:31.882Z,4.72
2022-12-03T09:40:02.173Z,4.95
2022-12-03T09:42:32.437Z,5.70
2022-12-03T09:45:02.092Z,5.00
2022-12-03T09:47:31.437Z,4.95
2022-12-03T09:50:02.567Z,5.85
2022-12-03T09:52:35.284Z,4.97
2022-12-03T09:55:06.442Z,7.72
2022-12-03T09:57:39.074Z,6.15
2022-12-03T10:00:35.611Z,5.43
2022-12-03T10:03:12.859Z,4.32
2022-12-03T10:05:47.953Z,5.18
2022-12-03T10:08:21.462Z,5.28
2022-12-03T10:10:53.918Z,4.60
2022-12-03T10:13:27.892Z,4.40
2022-12-03T10:16:05.493Z,4.22
2022-12-03T10:18:41.431Z,5.18
2022-12-03T10:21:20.413Z,4.88
2022-12-03T10:23:50.814Z,4.68
2022-12-03T10:26:39.796Z,5.05
2022-12-03T10:29:20.051Z,4.40
2022-12-03T10:31:55.436Z,4.50
2022-12-03T10:34:33.604Z,4.68
2022-12-03T10:37:15.763Z,4.63
2022-12-03T10:39:58.120Z,4.35
2022-12-03T10:42:30.331Z,4.35
2022-12-03T10:45:12.457Z,3.97
2022-12-03T10:48:01.395Z,4.45
2022-12-03T10:50:31.571Z,4.75
2022-12-03T10:53:01.499Z,4.82
2022-12-03T10:55:38.002Z,4.65
2022-12-03T10:58:21.004Z,5.38
2022-12-03T11:00:52.530Z,4.35
2022-12-03T11:03:26.488Z,3.78
2022-12-03T11:05:58.329Z,4.32
2022-12-03T11:08:36.815Z,4.22
2022-12-03T11:11:13.706Z,4.90
2022-12-03T11:13:44.227Z,4.15
2022-12-03T11:16:14.245Z,4.38
2022-12-03T11:18:47.471Z,4.55
2022-12-03T11:21:14.950Z,3.95
2022-12-03T11:23:48.483Z,4.75
2022-12-03T11:26:19.920Z,5.03
2022-12-03T11:28:50.675Z,4.13
2022-12-03T11:31:37.505Z,4.25
2022-12-03T11:34:19.843Z,3.90
2022-12-03T11:37:05.548Z,4.10
2022-12-03T11:39:56.788Z,4.75
2022-12-03T11:42:26.981Z,4.65
2022-12-03T11:45:03.451Z,4.78
2022-12-03T11:47:38.498Z,4.63
2022-12-03T11:50:26.199Z,5.15
2022-12-03T11:53:02.907Z,4.32
2022-12-03T11:55:48.500Z,4.15
2022-12-03T11:58:17.500Z,4.30
2022-12-03T12:00:54.977Z,5.22
2022-12-03T12:03:28.719Z,4.57
2022-12-03T12:06:04.040Z,4.25
2022-12-03T12:08:31.904Z,4.00
2022-12-03T12:11:03.084Z,3.92
2022-12-03T12:13:36.781Z,4.50
2022-12-03T12:16:10.408Z,3.58
2022-12-03T12:18:44.057Z,3.63
2022-12-03T12:21:29.202Z,4.82
2022-12-03T12:24:19.340Z,4.35
2022-12-03T12:26:55.380Z,4.05
2022-12-03T12:29:28.810Z,4.28
2022-12-03T12:32:16.082Z,4.10
2022-12-03T12:34:55.139Z,3.67
2022-12-03T12:37:29.488Z,3.65
2022-12-03T12:40:14.037Z,4.18
2022-12-03T12:42:51.710Z,3.78
2022-12-03T12:45:25.436Z,4.18
2022-12-03T12:47:58.371Z,3.85
2022-12-03T12:50:28.225Z,4.25
2022-12-03T12:53:01.636Z,3.88
2022-12-03T12:55:30.601Z,3.45
2022-12-03T12:58:02.953Z,3.35
2022-12-03T13:00:36.728Z,3.33
2022-12-03T13:03:07.832Z,3.63
2022-12-03T13:05:45.314Z,2.97
2022-12-03T13:08:23.449Z,3.30
2022-12-03T13:10:57.516Z,3.40
2022-12-03T13:13:27.884Z,4.22
2022-12-03T13:16:07.399Z,3.72
2022-12-03T13:18:41.781Z,4.30
2022-12-03T13:21:14.149Z,3.92
2022-12-03T13:23:42.112Z,3.60
2022-12-03T13:26:34.097Z,3.00
2022-12-03T13:29:10.138Z,3.75
2022-12-03T13:31:43.789Z,4.13
2022-12-03T13:34:22.365Z,3.40
2022-12-03T13:36:58.078Z,4.53
2022-12-03T13:39:32.926Z,5.15
2022-12-03T13:42:25.029Z,4.63
2022-12-03T13:44:54.893Z,4.00
2022-12-03T13:47:27.817Z,3.30
2022-12-03T13:50:03.833Z,4.18
2022-12-03T13:52:53.229Z,3.80
2022-12-03T13:55:34.708Z,3.75
2022-12-03T13:58:05.240Z,3.90
2022-12-03T14:00:54.669Z,3.50
2022-12-03T14:03:27.474Z,3.60
2022-12-03T14:05:59.089Z,3.88
2022-12-03T14:08:26.022Z,3.58
2022-12-03T14:11:00.901Z,3.97
2022-12-03T14:13:29.972Z,4.15
2022-12-03T14:16:00.304Z,3.83
2022-12-03T14:18:34.180Z,4.30
2022-12-03T14:21:01.115Z,3.78
2022-12-03T14:23:33.388Z,3.65
2022-12-03T14:26:06.324Z,4.03
2022-12-03T14:28:37.026Z,3.58
2022-12-03T14:31:06.443Z,3.33
2022-12-03T14:33:35.637Z,3.38
2022-12-03T14:36:06.045Z,4.20
2022-12-03T14:38:40.012Z,3.65
2022-12-03T14:41:32.556Z,3.20
2022-12-03T14:44:05.188Z,3.80
2022-12-03T14:46:35.170Z,4.07
2022-12-03T14:49:05.006Z,4.00
2022-12-03T14:51:36.396Z,3.47
2022-12-03T14:54:08.429Z,3.45
2022-12-03T14:56:43.531Z,3.80
2022-12-03T14:59:16.937Z,3.88
2022-12-03T15:01:46.842Z,3.70
2022-12-03T15:04:14.341Z,3.22
2022-12-03T15:06:45.064Z,2.88
2022-12-03T15:09:12.161Z,4.20
2022-12-03T15:11:45.797Z,3.47
2022-12-03T15:14:16.213Z,3.45
2022-12-03T15:16:43.617Z,3.13
2022-12-03T15:19:10.674Z,3.35
2022-12-03T15:21:37.827Z,4.22
2022-12-03T15:24:04.950Z,2.90
2022-12-03T15:26:31.841Z,3.45
2022-12-03T15:29:08.810Z,3.35
2022-12-03T15:31:39.155Z,3.63
2022-12-03T15:34:06.521Z,3.80
2022-12-03T15:36:36.932Z,3.75
2022-12-03T15:39:04.121Z,3.30
2022-12-03T15:41:36.243Z,2.53
2022-12-03T15:44:10.701Z,3.20
2022-12-03T15:46:40.715Z,3.83
2022-12-03T15:49:10.521Z,2.67
2022-12-03T15:51:40.225Z,2.85
2022-12-03T15:54:12.594Z,2.80
2022-12-03T15:56:42.882Z,2.88
2022-12-03T15:59:13.370Z,3.33
2022-12-03T16:01:41.084Z,3.15
2022-12-03T16:04:08.053Z,2.67
2022-12-03T16:06:38.619Z,3.20
2022-12-03T16:09:08.808Z,3.50
2022-12-03T16:11:39.136Z,3.03
2022-12-03T16:14:06.091Z,2.78
2022-12-03T16:16:36.388Z,3.17
2022-12-03T16:19:07.123Z,2.75
2022-12-03T16:21:40.600Z,2.83
2022-12-03T16:24:11.780Z,3.03
2022-12-03T16:26:42.124Z,2.58
2022-12-03T16:29:09.809Z,3.25
2022-12-03T16:31:43.764Z,2.60
2022-12-03T16:34:20.436Z,3.20
2022-12-03T16:36:50.945Z,2.63
2022-12-03T16:39:19.014Z,2.60
2022-12-03T16:41:53.137Z,2.90
2022-12-03T16:44:55.560Z,2.80
2022-12-03T16:47:29.353Z,3.33
2022-12-03T16:50:06.737Z,3.10
2022-12-03T16:52:34.133Z,3.25
2022-12-03T16:55:01.241Z,2.80
2022-12-03T16:57:33.842Z,2.60
2022-12-03T17:00:02.967Z,3.45
2022-12-03T17:02:36.241Z,3.08
2022-12-03T17:05:06.539Z,3.03
2022-12-03T17:07:39.004Z,3.53
2022-12-03T17:10:09.506Z,2.80
2022-12-03T17:13:07.750Z,3.03
2022-12-03T17:15:32.230Z,2.17
2022-12-03T17:18:04.014Z,2.83
2022-12-03T17:20:31.390Z,2.65
2022-12-03T17:23:01.086Z,2.78
2022-12-03T17:25:34.856Z,2.83
2022-12-03T17:28:08.130Z,2.92
2022-12-03T17:30:39.047Z,3.35
2022-12-03T17:33:08.941Z,2.72
2022-12-03T17:35:36.082Z,2.60
2022-12-03T17:38:05.683Z,2.90
2022-12-03T17:40:35.051Z,3.40
2022-12-03T17:43:07.827Z,3.10
2022-12-03T17:45:36.014Z,2.92
2022-12-03T17:48:09.098Z,3.50
2022-12-03T17:50:42.387Z,2.95
2022-12-03T17:53:14.135Z,3.40
2022-12-03T17:55:45.152Z,3.00
2022-12-03T17:58:18.583Z,2.95
2022-12-03T18:00:48.956Z,3.53
2022-12-03T18:03:18.976Z,3.10
2022-12-03T18:05:49.021Z,3.33
2022-12-03T18:08:16.071Z,2.97
2022-12-03T18:10:46.450Z,2.80
2022-12-03T18:13:16.452Z,3.00
2022-12-03T18:15:46.882Z,2.90
2022-12-03T18:18:19.924Z,3.50
2022-12-03T18:20:50.143Z,3.20
2022-12-03T18:23:23.697Z,3.00
2022-12-03T18:25:52.817Z,2.75
2022-12-03T18:28:22.890Z,2.97
2022-12-03T18:30:53.845Z,2.85
2022-12-03T18:33:26.632Z,2.70
2022-12-03T18:36:00.544Z,2.97
2022-12-03T18:38:35.369Z,2.88
2022-12-03T18:41:02.451Z,2.65
2022-12-03T18:43:34.446Z,3.42
2022-12-03T18:46:04.826Z,3.40
2022-12-03T18:48:35.489Z,3.33
2022-12-03T18:51:16.979Z,2.95
2022-12-03T18:53:44.039Z,3.08
2022-12-03T18:56:12.178Z,3.08
2022-12-03T18:58:45.170Z,3.05
2022-12-03T19:01:21.591Z,3.33
2022-12-03T19:03:50.013Z,2.72
2022-12-03T19:06:20.808Z,2.58
2022-12-03T19:08:54.946Z,2.78
2022-12-03T19:11:28.424Z,2.88
2022-12-03T19:14:03.162Z,3.00
2022-12-03T19:16:33.750Z,2.95
2022-12-03T19:19:03.841Z,2.83
2022-12-03T19:21:33.705Z,3.63
2022-12-03T19:24:23.879Z,2.67
2022-12-03T19:26:55.828Z,3.17
2022-12-03T19:29:33.697Z,3.15
2022-12-03T19:32:01.287Z,2.95
2022-12-03T19:34:37.508Z,2.40
2022-12-03T19:37:10.688Z,2.58
2022-12-03T19:39:43.562Z,2.67
2022-12-03T19:42:10.641Z,2.78
2022-12-03T19:44:41.983Z,3.00
2022-12-03T19:47:18.027Z,2.83
2022-12-03T19:49:51.129Z,3.08
2022-12-03T19:52:23.852Z,3.00
2022-12-03T19:54:53.982Z,3.40
2022-12-03T19:57:27.022Z,3.53
2022-12-03T19:59:57.613Z,2.88
2022-12-03T20:02:32.999Z,2.60
2022-12-03T20:05:05.084Z,2.70
2022-12-03T20:07:34.866Z,3.20
2022-12-03T20:10:08.157Z,2.88
2022-12-03T20:12:37.854Z,3.35
2022-12-03T20:15:08.480Z,2.83
2022-12-03T20:17:38.855Z,2.35
2022-12-03T20:20:06.568Z,3.15
2022-12-03T20:22:36.415Z,3.13
2022-12-03T20:25:06.176Z,3.08
2022-12-03T20:27:35.825Z,3.47
2022-12-03T20:30:06.523Z,2.67
2022-12-03T20:32:35.973Z,3.10
2022-12-03T20:35:08.298Z,2.80
2022-12-03T20:37:35.722Z,3.72
2022-12-03T20:40:04.373Z,2.92
2022-12-03T20:42:37.505Z,3.28
2022-12-03T20:45:07.922Z,3.60
2022-12-03T20:47:38.139Z,3.42
2022-12-03T20:50:14.744Z,3.22
2022-12-03T20:53:09.685Z,3.25
2022-12-03T20:55:40.263Z,3.00
2022-12-03T20:58:08.176Z,3.47
2022-12-03T21:00:41.249Z,3.55
2022-12-03T21:03:13.996Z,3.25
2022-12-03T21:05:47.850Z,3.47
2022-12-03T21:08:24.424Z,3.22
2022-12-03T21:11:06.465Z,3.45
2022-12-03T21:13:37.024Z,2.72
2022-12-03T21:16:09.133Z,3.47
2022-12-03T21:18:47.421Z,3.00
2022-12-03T21:21:17.839Z,2.60
2022-12-03T21:23:52.344Z,3.20
2022-12-03T21:26:25.294Z,2.88
2022-12-03T21:28:59.732Z,3.50
2022-12-03T21:31:32.016Z,2.67
2022-12-03T21:34:05.578Z,2.65
2022-12-03T21:36:38.165Z,3.10
2022-12-03T21:39:08.843Z,3.30
2022-12-03T21:44:40.331Z,3.38
2022-12-03T21:47:14.342Z,2.60
2022-12-03T21:49:44.948Z,3.15
2022-12-03T21:52:15.443Z,3.75
2022-12-03T21:54:51.883Z,2.80
2022-12-03T21:57:28.053Z,3.30
2022-12-03T22:00:01.287Z,3.33
2022-12-03T22:02:31.292Z,3.13
2022-12-03T22:04:58.742Z,3.22
2022-12-03T22:07:30.454Z,2.67
2022-12-03T22:09:58.891Z,3.28
2022-12-03T22:12:26.067Z,2.63
2022-12-03T22:14:57.649Z,3.78
2022-12-03T22:17:28.080Z,3.55
2022-12-03T22:19:58.372Z,3.22
2022-12-03T22:22:25.288Z,2.85
2022-12-03T22:24:57.651Z,3.25
2022-12-03T22:27:30.608Z,2.70
2022-12-03T22:30:00.882Z,3.42
2022-12-03T22:32:27.858Z,3.20
2022-12-03T22:35:00.389Z,3.22
2022-12-03T22:37:31.052Z,2.80
2022-12-03T22:40:08.137Z,3.08
2022-12-03T22:42:38.490Z,2.90
2022-12-03T22:45:11.678Z,3.38
2022-12-03T22:47:44.320Z,3.83
2022-12-03T22:50:16.807Z,3.05
2022-12-03T22:52:47.016Z,3.00
2022-12-03T22:55:23.017Z,3.05
2022-12-03T22:57:55.568Z,2.50
2022-12-03T23:00:30.439Z,2.53
2022-12-03T23:03:03.052Z,2.85
2022-12-03T23:05:38.811Z,2.72
2022-12-03T23:08:12.885Z,2.90
2022-12-03T23:10:42.002Z,2.65
2022-12-03T23:13:15.252Z,3.25
2022-12-03T23:15:50.145Z,3.83
2022-12-03T23:18:23.484Z,2.75
2022-12-03T23:20:55.443Z,2.35
2022-12-03T23:23:26.416Z,3.88
2022-12-03T23:26:03.691Z,2.78
2022-12-03T23:28:37.131Z,3.60
2022-12-03T23:31:08.021Z,2.65
2022-12-03T23:33:40.400Z,2.78
2022-12-03T23:36:09.937Z,2.80
2022-12-03T23:38:40.111Z,3.47
2022-12-03T23:41:14.043Z,2.70
2022-12-03T23:43:47.044Z,3.08
2022-12-03T23:46:21.729Z,2.75
2022-12-03T23:48:54.977Z,3.03
2022-12-03T23:51:26.056Z,2.88
2022-12-03T23:53:54.967Z,3.08
2022-12-03T23:56:23.722Z,2.83
2022-12-03T23:58:59.152Z,2.33
